createdAt,value
2019-02-18T00:01:38.770Z,30.33
2019-02-18T00:04:08.826Z,32.50
2019-02-18T00:06:38.705Z,31.67
2019-02-18T00:09:09.156Z,41.27
2019-02-18T00:11:39.601Z,48.07
2019-02-18T00:14:09.827Z,59.23
2019-02-18T00:16:40.158Z,53.90
2019-02-18T00:19:10.605Z,49.50
2019-02-18T00:21:40.614Z,41.13
2019-02-18T00:24:10.646Z,38.23
2019-02-18T00:26:40.861Z,33.00
2019-02-18T00:29:11.839Z,26.30
2019-02-18T00:31:42.165Z,28.13
2019-02-18T00:34:12.868Z,26.20
2019-02-18T00:36:42.894Z,30.17
2019-02-18T00:39:12.995Z,29.47
2019-02-18T00:41:43.029Z,26.77
2019-02-18T00:44:12.991Z,26.73
2019-02-18T00:46:43.443Z,23.80
2019-02-18T00:49:13.670Z,26.37
2019-02-18T00:51:43.574Z,26.97
2019-02-18T00:54:13.808Z,25.37
2019-02-18T00:56:43.801Z,26.77
2019-02-18T00:59:13.842Z,25.43
2019-02-18T01:01:43.870Z,26.63
2019-02-18T01:04:14.387Z,25.80
2019-02-18T01:06:44.789Z,25.33
2019-02-18T01:09:14.900Z,24.10
2019-02-18T01:11:45.156Z,22.93
2019-02-18T01:14:16.006Z,25.60
2019-02-18T01:16:46.562Z,27.53
2019-02-18T01:19:16.663Z,27.73
2019-02-18T01:21:46.816Z,25.43
2019-02-18T01:24:16.811Z,28.97
2019-02-18T01:26:46.802Z,29.40
2019-02-18T01:29:17.349Z,25.30
2019-02-18T01:31:47.314Z,28.87
2019-02-18T01:34:17.207Z,27.13
2019-02-18T01:36:47.136Z,27.17
2019-02-18T01:39:18.083Z,29.07
2019-02-18T01:41:48.075Z,29.67
2019-02-18T01:44:18.092Z,28.30
2019-02-18T01:46:48.008Z,26.80
2019-02-18T01:49:18.031Z,27.83
2019-02-18T01:51:48.250Z,26.67
2019-02-18T01:54:18.224Z,26.10
2019-02-18T01:56:48.594Z,24.57
2019-02-18T01:59:18.947Z,22.70
2019-02-18T02:01:49.394Z,26.27
2019-02-18T02:04:19.387Z,34.67
2019-02-18T02:06:50.428Z,30.17
2019-02-18T02:09:20.729Z,33.53
2019-02-18T02:11:50.906Z,31.07
2019-02-18T02:14:20.947Z,28.80
2019-02-18T02:16:51.889Z,27.70
2019-02-18T02:19:21.880Z,32.90
2019-02-18T02:21:52.414Z,32.77
2019-02-18T02:24:22.545Z,31.80
2019-02-18T02:26:52.951Z,37.63
2019-02-18T02:29:23.296Z,39.67
2019-02-18T02:31:53.436Z,39.60
2019-02-18T02:34:23.578Z,37.40
2019-02-18T02:36:53.452Z,34.97
2019-02-18T02:39:23.783Z,35.63
2019-02-18T02:41:53.837Z,36.07
2019-02-18T02:44:24.236Z,30.90
2019-02-18T02:46:54.766Z,40.17
2019-02-18T02:49:25.462Z,42.63
2019-02-18T02:51:55.437Z,40.43
2019-02-18T02:54:25.298Z,36.63
2019-02-18T02:56:55.501Z,29.77
2019-02-18T02:59:25.541Z,30.73
2019-02-18T03:01:55.380Z,29.57
2019-02-18T03:04:25.763Z,31.47
2019-02-18T03:06:55.771Z,30.37
2019-02-18T03:09:25.970Z,29.70
2019-02-18T03:11:55.855Z,34.93
2019-02-18T03:14:26.202Z,35.30
2019-02-18T03:16:56.679Z,36.63
2019-02-18T03:19:26.903Z,38.30
2019-02-18T03:21:56.768Z,32.27
2019-02-18T03:24:26.764Z,31.97
2019-02-18T03:26:56.746Z,29.10
2019-02-18T03:30:11.003Z,30.77
2019-02-18T03:32:54.118Z,28.00
2019-02-18T03:35:24.749Z,29.33
2019-02-18T03:37:54.783Z,30.20
2019-02-18T03:40:24.760Z,26.57
2019-02-18T03:42:55.008Z,27.73
2019-02-18T03:45:25.192Z,33.33
2019-02-18T03:47:55.055Z,27.87
2019-02-18T03:50:25.106Z,26.30
2019-02-18T03:52:55.285Z,28.70
2019-02-18T03:55:25.882Z,28.07
2019-02-18T03:57:55.842Z,24.60
2019-02-18T04:00:26.273Z,24.60
2019-02-18T04:02:56.677Z,29.63
2019-02-18T04:05:27.102Z,30.27
2019-02-18T04:07:57.351Z,27.63
2019-02-18T04:10:27.243Z,29.37
2019-02-18T04:12:57.640Z,26.70
2019-02-18T04:15:28.083Z,33.57
2019-02-18T04:17:58.247Z,31.27
2019-02-18T04:20:28.722Z,37.60
2019-02-18T04:22:58.883Z,36.00
2019-02-18T04:25:28.840Z,34.13
2019-02-18T04:27:59.309Z,36.97
2019-02-18T04:30:29.797Z,39.07
2019-02-18T04:33:00.480Z,34.90
2019-02-18T04:35:30.421Z,35.70
2019-02-18T04:38:00.420Z,34.87
2019-02-18T04:40:30.720Z,30.83
2019-02-18T04:43:01.464Z,32.87
2019-02-18T04:45:31.475Z,32.90
2019-02-18T04:48:03.240Z,38.67
2019-02-18T04:50:33.331Z,37.67
2019-02-18T04:53:03.345Z,37.27
2019-02-18T04:55:33.351Z,45.80
2019-02-18T04:58:06.232Z,43.00
2019-02-18T05:00:37.483Z,46.90
2019-02-18T05:03:07.431Z,40.43
2019-02-18T05:05:37.831Z,35.10
2019-02-18T05:08:07.812Z,33.37
2019-02-18T05:10:38.610Z,35.27
2019-02-18T05:13:08.741Z,33.53
2019-02-18T05:15:40.299Z,34.67
2019-02-18T05:18:11.113Z,33.60
2019-02-18T05:20:41.129Z,33.33
2019-02-18T05:23:11.673Z,34.23
2019-02-18T05:25:41.959Z,30.87
2019-02-18T05:28:11.915Z,23.83
2019-02-18T05:30:42.410Z,31.03
2019-02-18T05:33:12.961Z,26.63
2019-02-18T05:35:43.278Z,27.70
2019-02-18T05:38:13.347Z,32.47
2019-02-18T05:40:43.453Z,30.40
2019-02-18T05:43:13.584Z,34.27
2019-02-18T05:45:43.571Z,30.60
2019-02-18T05:48:14.219Z,29.17
2019-02-18T05:50:44.892Z,30.47
2019-02-18T05:53:14.788Z,33.33
2019-02-18T05:55:44.631Z,31.87
2019-02-18T05:58:14.876Z,36.67
2019-02-18T06:00:44.880Z,37.13
2019-02-18T06:03:15.091Z,40.50
2019-02-18T06:05:45.085Z,39.37
2019-02-18T06:08:15.147Z,33.37
2019-02-18T06:10:45.893Z,35.97
2019-02-18T06:13:15.903Z,32.67
2019-02-18T06:15:46.356Z,32.23
2019-02-18T06:18:16.477Z,35.00
2019-02-18T06:20:46.970Z,33.87
2019-02-18T06:23:17.003Z,36.47
2019-02-18T06:25:47.262Z,39.77
2019-02-18T06:28:17.725Z,49.07
2019-02-18T06:30:48.037Z,87.10
2019-02-18T06:33:18.169Z,91.17
2019-02-18T06:35:48.368Z,63.90
2019-02-18T06:38:18.490Z,66.77
2019-02-18T06:40:48.700Z,58.37
2019-02-18T06:43:18.763Z,60.90
2019-02-18T06:46:07.891Z,51.07
2019-02-18T06:48:43.490Z,53.43
2019-02-18T06:51:13.524Z,49.83
2019-02-18T06:53:43.529Z,48.53
2019-02-18T06:56:13.855Z,51.90
2019-02-18T06:58:52.694Z,59.90
2019-02-18T07:01:57.071Z,50.07
2019-02-18T07:04:35.901Z,42.80
2019-02-18T07:07:34.513Z,37.20
2019-02-18T07:10:14.370Z,36.70
2019-02-18T07:12:50.503Z,30.03
2019-02-18T07:15:20.880Z,24.77
2019-02-18T07:17:51.523Z,28.33
2019-02-18T07:20:21.731Z,24.57
2019-02-18T07:22:51.740Z,24.03
2019-02-18T07:25:21.901Z,26.77
2019-02-18T07:27:52.399Z,23.93
2019-02-18T07:30:22.568Z,22.43
2019-02-18T07:32:53.244Z,20.73
2019-02-18T07:35:23.614Z,20.00
2019-02-18T07:37:53.791Z,20.70
2019-02-18T07:40:23.769Z,22.07
2019-02-18T07:42:54.230Z,24.23
2019-02-18T07:45:24.578Z,20.50
2019-02-18T07:47:54.604Z,18.83
2019-02-18T07:50:24.520Z,17.93
2019-02-18T07:52:54.624Z,18.47
2019-02-18T07:55:25.195Z,20.63
2019-02-18T07:57:55.283Z,20.97
2019-02-18T08:00:25.674Z,22.60
2019-02-18T08:02:55.793Z,21.57
2019-02-18T08:05:26.645Z,21.53
2019-02-18T08:07:56.690Z,19.20
2019-02-18T08:10:27.023Z,22.43
2019-02-18T08:12:57.608Z,20.10
2019-02-18T08:15:27.718Z,20.33
2019-02-18T08:17:57.899Z,20.60
2019-02-18T08:20:27.821Z,19.13
2019-02-18T08:22:58.461Z,20.37
2019-02-18T08:25:28.465Z,22.17
2019-02-18T08:27:58.629Z,21.20
2019-02-18T08:30:29.213Z,26.57
2019-02-18T08:32:59.138Z,22.07
2019-02-18T08:35:29.366Z,24.17
2019-02-18T08:37:59.618Z,26.20
2019-02-18T08:40:30.206Z,24.07
2019-02-18T08:43:00.384Z,21.10
2019-02-18T08:45:30.558Z,21.10
2019-02-18T08:48:00.560Z,18.87
2019-02-18T08:50:31.119Z,18.12
2019-02-18T08:53:01.103Z,17.17
2019-02-18T08:55:31.203Z,17.25
2019-02-18T08:58:01.675Z,18.62
2019-02-18T09:00:32.250Z,18.00
2019-02-18T09:03:02.790Z,16.62
2019-02-18T09:05:32.837Z,16.67
2019-02-18T09:08:03.166Z,16.70
2019-02-18T09:10:34.094Z,17.32
2019-02-18T09:13:04.438Z,16.73
2019-02-18T09:15:34.366Z,18.75
2019-02-18T09:18:04.315Z,16.70
2019-02-18T09:20:34.578Z,16.82
2019-02-18T09:23:21.779Z,17.23
2019-02-18T09:25:54.821Z,17.57
2019-02-18T09:28:25.122Z,17.12
2019-02-18T09:30:56.301Z,16.07
2019-02-18T09:33:26.449Z,17.30
2019-02-18T09:35:56.495Z,15.63
2019-02-18T09:38:26.858Z,15.00
2019-02-18T09:40:58.217Z,15.75
2019-02-18T09:43:29.280Z,16.12
2019-02-18T09:45:59.461Z,17.17
2019-02-18T09:48:29.671Z,16.23
2019-02-18T09:51:00.297Z,16.25
2019-02-18T09:53:31.052Z,17.17
2019-02-18T09:56:01.817Z,16.27
2019-02-18T09:58:31.924Z,17.07
2019-02-18T10:01:02.011Z,17.70
2019-02-18T10:03:32.416Z,15.53
2019-02-18T10:06:02.992Z,16.23
2019-02-18T10:08:33.073Z,17.65
2019-02-18T10:11:03.174Z,17.15
2019-02-18T10:13:33.224Z,16.87
2019-02-18T10:16:03.443Z,15.88
2019-02-18T10:18:33.309Z,15.93
2019-02-18T10:21:03.349Z,16.30
2019-02-18T10:23:33.555Z,15.93
2019-02-18T10:26:03.443Z,15.32
2019-02-18T10:28:33.467Z,17.77
2019-02-18T10:31:03.760Z,16.42
2019-02-18T10:33:33.803Z,15.55
2019-02-18T10:36:03.856Z,16.62
2019-02-18T10:38:33.782Z,16.57
2019-02-18T10:41:06.818Z,18.12
2019-02-18T10:43:35.405Z,17.92
2019-02-18T10:46:05.326Z,16.90
2019-02-18T10:48:35.969Z,19.02
2019-02-18T10:51:06.430Z,17.87
2019-02-18T10:53:36.501Z,16.77
2019-02-18T10:56:06.487Z,16.12
2019-02-18T10:58:36.450Z,16.62
2019-02-18T11:01:07.359Z,15.90
2019-02-18T11:03:37.406Z,16.40
2019-02-18T11:06:09.262Z,14.70
2019-02-18T11:08:39.775Z,16.52
2019-02-18T11:11:16.632Z,16.60
2019-02-18T11:13:41.510Z,15.00
2019-02-18T11:16:11.885Z,18.10
2019-02-18T11:18:42.188Z,15.15
2019-02-18T11:21:13.471Z,16.05
2019-02-18T11:23:43.578Z,16.27
2019-02-18T11:26:13.559Z,16.30
2019-02-18T11:28:44.142Z,17.27
2019-02-18T11:31:15.847Z,19.25
2019-02-18T11:33:46.307Z,19.77
2019-02-18T11:36:16.765Z,19.17
2019-02-18T11:38:46.831Z,18.10
2019-02-18T11:41:26.861Z,19.50
2019-02-18T11:43:48.965Z,19.53
2019-02-18T11:46:19.305Z,20.73
2019-02-18T11:48:49.410Z,20.60
2019-02-18T11:51:19.887Z,20.30
2019-02-18T11:53:50.300Z,19.07
2019-02-18T11:56:20.779Z,18.37
2019-02-18T11:58:51.533Z,19.87
2019-02-18T12:01:22.247Z,18.90
2019-02-18T12:03:52.941Z,18.73
2019-02-18T12:06:22.941Z,18.00
2019-02-18T12:08:52.995Z,17.43
2019-02-18T12:11:23.111Z,18.87
2019-02-18T12:13:53.495Z,15.43
2019-02-18T12:16:23.968Z,16.60
2019-02-18T12:18:54.087Z,17.17
2019-02-18T12:21:24.139Z,17.53
2019-02-18T12:23:54.288Z,20.07
2019-02-18T12:26:25.145Z,18.10
2019-02-18T12:28:55.660Z,17.77
2019-02-18T12:31:25.698Z,16.03
2019-02-18T12:33:56.325Z,18.70
2019-02-18T12:36:26.545Z,17.47
2019-02-18T12:38:56.715Z,18.10
2019-02-18T12:41:27.215Z,20.93
2019-02-18T12:43:58.566Z,17.13
2019-02-18T12:46:28.652Z,17.70
2019-02-18T12:48:58.899Z,19.00
2019-02-18T12:51:29.440Z,16.90
2019-02-18T12:54:04.955Z,19.30
2019-02-18T12:56:35.038Z,19.63
2019-02-18T12:59:05.723Z,18.97
2019-02-18T13:01:36.810Z,17.67
2019-02-18T13:04:08.804Z,20.03
2019-02-18T13:06:40.696Z,21.70
2019-02-18T13:09:12.427Z,20.83
2019-02-18T13:11:44.237Z,18.23
2019-02-18T13:14:16.137Z,19.93
2019-02-18T13:16:48.134Z,20.27
2019-02-18T13:19:19.957Z,19.13
2019-02-18T13:21:51.743Z,19.23
2019-02-18T13:24:24.262Z,18.60
2019-02-18T13:26:54.580Z,19.87
2019-02-18T13:29:25.717Z,18.60
2019-02-18T13:31:56.252Z,19.63
2019-02-18T13:34:26.276Z,18.33
2019-02-18T13:36:58.022Z,16.37
2019-02-18T13:39:28.577Z,17.97
2019-02-18T13:42:07.096Z,18.23
2019-02-18T13:44:31.241Z,16.53
2019-02-18T13:47:00.732Z,17.33
2019-02-18T13:49:31.032Z,17.50
2019-02-18T13:52:02.995Z,15.60
2019-02-18T13:54:33.690Z,16.07
2019-02-18T13:57:09.829Z,16.70
2019-02-18T13:59:36.268Z,15.73
2019-02-18T14:02:07.284Z,15.43
2019-02-18T14:04:37.647Z,13.73
2019-02-18T14:07:07.681Z,14.20
2019-02-18T14:09:38.341Z,11.33
2019-02-18T14:12:15.963Z,15.40
2019-02-18T14:14:40.568Z,11.20
2019-02-18T14:17:10.923Z,12.10
2019-02-18T14:19:41.200Z,15.17
2019-02-18T14:22:11.506Z,11.37
2019-02-18T14:24:41.520Z,12.87
2019-02-18T14:27:11.519Z,12.90
2019-02-18T14:29:41.981Z,13.07
2019-02-18T14:32:12.433Z,12.17
2019-02-18T14:34:42.558Z,15.80
2019-02-18T14:37:12.670Z,13.60
2019-02-18T14:39:42.734Z,11.43
2019-02-18T14:42:13.353Z,11.90
2019-02-18T14:44:43.863Z,12.07
2019-02-18T14:47:14.581Z,20.43
2019-02-18T14:49:44.934Z,14.07
2019-02-18T14:52:15.248Z,14.37
2019-02-18T14:54:45.436Z,14.27
2019-02-18T14:57:15.742Z,15.33
2019-02-18T14:59:46.011Z,15.23
2019-02-18T15:02:16.359Z,14.80
2019-02-18T15:04:46.757Z,13.57
2019-02-18T15:07:17.052Z,14.87
2019-02-18T15:09:48.882Z,14.13
2019-02-18T15:12:20.013Z,14.17
2019-02-18T15:14:50.308Z,15.10
2019-02-18T15:17:20.620Z,13.67
2019-02-18T15:19:50.629Z,17.20
2019-02-18T15:22:20.732Z,15.23
2019-02-18T15:24:50.879Z,14.97
2019-02-18T15:27:21.642Z,14.63
2019-02-18T15:29:52.057Z,15.20
2019-02-18T15:32:22.588Z,15.73
2019-02-18T15:34:52.725Z,14.43
2019-02-18T15:37:23.411Z,13.77
2019-02-18T15:39:54.360Z,16.27
2019-02-18T15:42:24.577Z,12.93
2019-02-18T15:44:54.778Z,14.40
2019-02-18T15:47:25.298Z,15.07
2019-02-18T15:49:55.625Z,14.27
2019-02-18T15:52:25.952Z,13.40
2019-02-18T15:54:56.961Z,12.83
2019-02-18T15:57:27.456Z,12.63
2019-02-18T15:59:57.557Z,11.93
2019-02-18T16:02:27.688Z,17.77
2019-02-18T16:04:57.965Z,15.40
2019-02-18T16:07:28.607Z,14.50
2019-02-18T16:09:58.801Z,14.10
2019-02-18T16:12:29.105Z,12.10
2019-02-18T16:14:59.159Z,13.40
2019-02-18T16:17:29.601Z,11.87
2019-02-18T16:19:59.579Z,13.07
2019-02-18T16:22:29.706Z,12.27
2019-02-18T16:24:59.896Z,12.63
2019-02-18T16:27:30.142Z,10.47
2019-02-18T16:30:00.389Z,10.50
2019-02-18T16:32:30.837Z,9.63
2019-02-18T16:35:01.301Z,9.97
2019-02-18T16:37:31.720Z,14.07
2019-02-18T16:40:01.848Z,11.20
2019-02-18T16:42:32.950Z,11.03
2019-02-18T16:45:03.542Z,10.10
2019-02-18T16:47:34.104Z,12.13
2019-02-18T16:50:04.415Z,12.33
2019-02-18T16:52:34.854Z,13.43
2019-02-18T16:55:05.310Z,11.37
2019-02-18T16:57:35.512Z,11.33
2019-02-18T17:00:11.003Z,13.03
2019-02-18T17:02:41.110Z,12.77
2019-02-18T17:05:11.356Z,13.73
2019-02-18T17:07:43.099Z,11.30
2019-02-18T17:10:13.788Z,10.40
2019-02-18T17:12:43.985Z,12.57
2019-02-18T17:15:14.366Z,11.83
2019-02-18T17:17:44.459Z,10.20
2019-02-18T17:20:15.083Z,11.63
2019-02-18T17:22:45.693Z,16.20
2019-02-18T17:25:15.967Z,13.63
2019-02-18T17:27:47.149Z,17.17
2019-02-18T17:30:17.391Z,18.30
2019-02-18T17:32:47.960Z,19.63
2019-02-18T17:35:18.702Z,19.37
2019-02-18T17:37:48.739Z,18.57
2019-02-18T17:40:18.822Z,18.20
2019-02-18T17:42:50.005Z,17.00
2019-02-18T17:45:20.420Z,19.30
2019-02-18T17:47:51.022Z,19.87
2019-02-18T17:50:21.246Z,24.33
2019-02-18T17:52:51.873Z,26.77
2019-02-18T17:55:22.341Z,21.93
2019-02-18T17:57:52.292Z,19.57
2019-02-18T18:00:25.165Z,16.03
2019-02-18T18:02:55.468Z,13.33
2019-02-18T18:05:26.172Z,12.33
2019-02-18T18:07:56.438Z,21.80
2019-02-18T18:10:26.847Z,20.63
2019-02-18T18:12:57.290Z,20.33
2019-02-18T18:15:27.392Z,19.70
2019-02-18T18:17:57.478Z,19.20
2019-02-18T18:20:27.394Z,22.77
2019-02-18T18:22:57.848Z,26.37
2019-02-18T18:25:28.248Z,22.17
2019-02-18T18:27:58.827Z,20.80
2019-02-18T18:30:29.248Z,20.10
2019-02-18T18:32:59.329Z,19.13
2019-02-18T18:35:29.337Z,19.57
2019-02-18T18:37:59.263Z,19.70
2019-02-18T18:40:29.443Z,19.00
2019-02-18T18:42:59.796Z,17.73
2019-02-18T18:45:29.918Z,17.30
2019-02-18T18:47:59.965Z,15.23
2019-02-18T18:50:30.565Z,12.50
2019-02-18T18:53:00.742Z,13.77
2019-02-18T18:55:31.121Z,15.67
2019-02-18T18:58:01.298Z,11.43
2019-02-18T19:00:31.593Z,10.47
2019-02-18T19:03:03.667Z,12.63
2019-02-18T19:05:34.528Z,10.83
2019-02-18T19:08:05.132Z,12.27
2019-02-18T19:10:35.453Z,11.50
2019-02-18T19:13:05.576Z,11.70
2019-02-18T19:15:35.585Z,14.67
2019-02-18T19:18:06.903Z,13.50
2019-02-18T19:20:37.158Z,13.40
2019-02-18T19:23:07.357Z,14.67
2019-02-18T19:25:37.521Z,15.20
2019-02-18T19:28:07.935Z,14.77
2019-02-18T19:30:38.130Z,17.27
2019-02-18T19:33:08.365Z,13.17
2019-02-18T19:35:38.572Z,13.97
2019-02-18T19:38:08.527Z,11.27
2019-02-18T19:40:38.451Z,11.77
2019-02-18T19:43:09.271Z,11.33
2019-02-18T19:45:39.353Z,10.77
2019-02-18T19:48:09.527Z,11.20
2019-02-18T19:50:39.845Z,12.57
2019-02-18T19:53:10.047Z,13.77
2019-02-18T19:55:40.383Z,18.33
2019-02-18T19:58:10.637Z,14.67
2019-02-18T20:00:41.032Z,13.70
2019-02-18T20:03:11.340Z,11.80
2019-02-18T20:05:41.255Z,12.70
2019-02-18T20:08:11.587Z,13.53
2019-02-18T20:10:41.658Z,20.40
2019-02-18T20:13:11.756Z,17.77
2019-02-18T20:15:41.926Z,18.90
2019-02-18T20:18:13.794Z,20.20
2019-02-18T20:20:44.124Z,31.10
2019-02-18T20:23:14.978Z,28.43
2019-02-18T20:25:45.186Z,22.50
2019-02-18T20:28:15.388Z,22.10
2019-02-18T20:30:45.563Z,18.63
2019-02-18T20:33:16.248Z,18.10
2019-02-18T20:35:48.607Z,17.67
2019-02-18T20:38:18.815Z,20.17
2019-02-18T20:40:49.065Z,27.93
2019-02-18T20:43:19.541Z,29.07
2019-02-18T20:45:49.786Z,21.93
2019-02-18T20:48:20.508Z,26.20
2019-02-18T20:50:50.961Z,21.97
2019-02-18T20:53:21.379Z,19.87
2019-02-18T20:55:52.225Z,20.77
2019-02-18T20:58:22.646Z,19.87
2019-02-18T21:00:53.028Z,27.00
2019-02-18T21:03:23.605Z,36.67
2019-02-18T21:05:54.137Z,34.23
2019-02-18T21:08:24.161Z,31.60
2019-02-18T21:10:54.331Z,33.13
2019-02-18T21:13:24.720Z,30.80
2019-02-18T21:15:55.488Z,34.70
2019-02-18T21:18:25.701Z,36.40
2019-02-18T21:20:55.914Z,35.53
2019-02-18T21:23:25.970Z,33.40
2019-02-18T21:25:56.157Z,33.10
2019-02-18T21:28:26.613Z,32.27
2019-02-18T21:30:56.942Z,32.77
2019-02-18T21:33:27.288Z,28.47
2019-02-18T21:35:57.484Z,24.77
2019-02-18T21:38:27.575Z,25.67
2019-02-18T21:40:57.620Z,30.13
2019-02-18T21:43:28.523Z,38.70
2019-02-18T21:45:59.119Z,35.03
2019-02-18T21:48:29.633Z,38.03
2019-02-18T21:50:59.854Z,31.30
2019-02-18T21:53:29.956Z,32.23
2019-02-18T21:56:00.102Z,24.73
2019-02-18T21:58:30.128Z,26.83
2019-02-18T22:01:00.446Z,23.27
2019-02-18T22:03:30.773Z,25.63
2019-02-18T22:06:00.786Z,26.33
2019-02-18T22:08:30.981Z,27.37
2019-02-18T22:11:01.443Z,26.23
2019-02-18T22:13:31.579Z,23.97
2019-02-18T22:16:01.564Z,23.97
2019-02-18T22:18:31.727Z,23.53
2019-02-18T22:21:01.975Z,25.07
2019-02-18T22:23:31.952Z,35.07
2019-02-18T22:26:02.425Z,32.47
2019-02-18T22:28:33.004Z,33.57
2019-02-18T22:31:03.322Z,25.80
2019-02-18T22:33:33.365Z,25.77
2019-02-18T22:36:03.583Z,27.40
2019-02-18T22:38:33.733Z,30.37
2019-02-18T22:41:04.355Z,25.27
2019-02-18T22:43:34.440Z,25.40
2019-02-18T22:46:05.238Z,22.27
2019-02-18T22:48:35.577Z,22.67
2019-02-18T22:51:05.728Z,27.17
2019-02-18T22:53:36.347Z,28.23
2019-02-18T22:56:06.547Z,23.63
2019-02-18T22:58:36.993Z,24.47
2019-02-18T23:01:08.775Z,22.13
2019-02-18T23:03:38.955Z,29.43
2019-02-18T23:06:09.207Z,31.07
2019-02-18T23:08:39.379Z,37.13
2019-02-18T23:11:10.005Z,32.63
2019-02-18T23:13:41.951Z,35.43
2019-02-18T23:16:12.167Z,24.83
2019-02-18T23:18:42.459Z,38.70
2019-02-18T23:21:12.565Z,47.57
2019-02-18T23:23:42.848Z,46.77
2019-02-18T23:26:13.234Z,43.37
2019-02-18T23:28:43.841Z,46.67
2019-02-18T23:31:14.009Z,34.33
2019-02-18T23:33:44.065Z,26.63
2019-02-18T23:36:14.236Z,23.27
2019-02-18T23:38:44.592Z,23.53
2019-02-18T23:41:14.991Z,24.17
2019-02-18T23:43:45.130Z,27.87
2019-02-18T23:46:15.131Z,24.60
2019-02-18T23:48:45.593Z,26.77
2019-02-18T23:51:16.087Z,26.20
2019-02-18T23:53:46.200Z,24.97
2019-02-18T23:56:16.238Z,25.33
2019-02-18T23:58:46.318Z,28.20
